Time;durP1;ratioP1;P1;durP2;ratioP2;P2;SDS_P1;SDS_P2;PMS_P1;PMS_P2;Temp;Humidity;BMP_temperature;BMP_pressure;BME280_temperature;BME280_humidity;BME280_pressure;Samples;Min_cycle;Max_cycle;Signal;HPM_P1;HPM_P2
2021/06/13 00:26:26;;;;;;;12.97;4.50;;;14.10;97.30;;;;;;5268004;23;20525;-92
2021/06/13 00:31:35;;;;;;;13.97;4.40;;;14.10;97.30;;;;;;4917415;29;20217;-89
2021/06/13 00:34:00;;;;;;;15.90;4.33;;;14.10;97.30;;;;;;4902410;29;20500;-88
2021/06/13 00:36:26;;;;;;;7.30;3.60;;;14.10;97.30;;;;;;4902262;29;20440;-88
2021/06/13 00:38:51;;;;;;;10.00;4.23;;;14.10;97.30;;;;;;4902613;29;20670;-88
2021/06/13 00:41:19;;;;;;;11.23;3.73;;;14.10;97.30;;;;;;4901802;29;20196;-88
2021/06/13 00:43:45;;;;;;;8.77;4.13;;;14.10;97.30;;;;;;4902515;29;20208;-88
2021/06/13 00:46:10;;;;;;;8.40;4.53;;;14.10;97.30;;;;;;4919602;29;20409;-88
2021/06/13 00:48:37;;;;;;;8.20;3.80;;;14.10;97.30;;;;;;4902513;29;21022;-88
2021/06/13 00:51:03;;;;;;;8.43;4.30;;;14.10;97.30;;;;;;4919864;29;20576;-89
2021/06/13 00:53:29;;;;;;;11.80;4.30;;;14.10;97.30;;;;;;4903156;29;20429;-88
2021/06/13 00:55:58;;;;;;;9.83;4.60;;;14.10;97.30;;;;;;4920329;29;20420;-87
2021/06/13 00:58:24;;;;;;;7.80;3.97;;;14.10;97.30;;;;;;4903231;29;20184;-88
2021/06/13 01:00:50;;;;;;;12.87;4.33;;;14.00;97.30;;;;;;4903371;29;20444;-88
2021/06/13 01:03:16;;;;;;;7.90;4.17;;;14.00;97.30;;;;;;4903519;29;20424;-88
2021/06/13 01:05:42;;;;;;;6.80;3.90;;;13.90;97.30;;;;;;4902932;29;20644;-88
2021/06/13 01:08:39;;;;;;;12.60;5.30;;;13.90;97.30;;;;;;4902955;29;20417;-88
2021/06/13 01:11:47;;;;;;;8.80;4.10;;;13.80;97.30;;;;;;4902114;29;20287;-89
2021/06/13 01:14:36;;;;;;;10.10;4.00;;;13.80;97.30;;;;;;4901000;29;20468;-89
2021/06/13 01:17:15;;;;;;;10.40;4.33;;;13.80;97.30;;;;;;4901126;29;20444;-88
2021/06/13 01:20:14;;;;;;;6.20;3.73;;;13.70;97.30;;;;;;4901085;29;20812;-89
2021/06/13 01:22:56;;;;;;;6.60;3.93;;;13.70;97.30;;;;;;4900591;29;20445;-89
2021/06/13 01:25:38;;;;;;;10.33;4.43;;;13.70;97.30;;;;;;4900693;29;20413;-89
2021/06/13 01:28:44;;;;;;;13.60;4.73;;;13.70;97.30;;;;;;4900503;29;20424;-89
2021/06/13 01:31:10;;;;;;;9.83;4.20;;;13.60;97.30;;;;;;4900489;29;20575;-88
2021/06/13 01:33:39;;;;;;;9.67;5.27;;;13.60;97.30;;;;;;4900784;29;20788;-89
2021/06/13 01:36:07;;;;;;;8.23;4.50;;;13.60;97.30;;;;;;4901107;29;20422;-88
2021/06/13 01:38:33;;;;;;;9.93;4.60;;;13.50;97.30;;;;;;4901308;29;20417;-89
2021/06/13 01:41:05;;;;;;;14.83;4.60;;;13.50;97.30;;;;;;4901101;29;20465;-88
2021/06/13 01:43:32;;;;;;;7.93;4.73;;;13.50;97.30;;;;;;4901249;29;20931;-88
2021/06/13 01:45:58;;;;;;;10.93;4.50;;;13.40;97.30;;;;;;4916738;29;20440;-89
2021/06/13 01:48:26;;;;;;;5.90;3.87;;;13.40;97.30;;;;;;4900828;29;20436;-89
2021/06/13 01:50:54;;;;;;;10.47;4.30;;;13.40;97.30;;;;;;4902233;29;20464;-88
2021/06/13 01:53:20;;;;;;;7.87;4.17;;;13.30;97.30;;;;;;4902532;29;20416;-89
2021/06/13 01:55:47;;;;;;;8.50;4.30;;;13.30;97.30;;;;;;4902445;29;20472;-89
2021/06/13 01:58:16;;;;;;;8.63;4.60;;;13.30;97.30;;;;;;4902569;29;20263;-89
2021/06/13 02:00:42;;;;;;;9.30;4.70;;;13.20;97.30;;;;;;4902221;29;20444;-89
2021/06/13 02:03:09;;;;;;;11.43;4.73;;;13.20;97.30;;;;;;4918842;29;20507;-89
2021/06/13 02:05:36;;;;;;;14.03;4.63;;;13.10;97.30;;;;;;4916891;29;20447;-89
2021/06/13 02:08:02;;;;;;;12.07;4.30;;;13.10;97.30;;;;;;4900639;29;20460;-88
2021/06/13 02:10:29;;;;;;;11.53;6.00;;;13.10;97.30;;;;;;4900127;29;20479;-88
2021/06/13 02:12:56;;;;;;;22.13;4.53;;;13.10;97.30;;;;;;4918881;29;20234;-89
2021/06/13 02:15:25;;;;;;;6.57;4.33;;;13.00;97.30;;;;;;4919220;29;20485;-89
2021/06/13 02:17:51;;;;;;;13.33;4.40;;;13.00;97.30;;;;;;4918396;29;20415;-89
2021/06/13 02:20:23;;;;;;;10.00;4.37;;;13.00;97.30;;;;;;4919129;29;21027;-87
2021/06/13 02:22:51;;;;;;;12.63;4.70;;;13.00;97.30;;;;;;4936127;29;20428;-88
2021/06/13 02:25:21;;;;;;;12.30;4.33;;;13.00;97.30;;;;;;4919079;29;20412;-89
2021/06/13 02:27:51;;;;;;;15.33;4.33;;;12.90;97.30;;;;;;4936218;29;20441;-89
2021/06/13 02:30:19;;;;;;;9.37;4.50;;;13.00;97.30;;;;;;4936399;29;20459;-88
2021/06/13 02:32:46;;;;;;;14.33;4.60;;;12.90;97.30;;;;;;4919811;29;20428;-89
2021/06/13 02:35:12;;;;;;;5.57;3.80;;;12.90;97.30;;;;;;4919828;29;20511;-89
2021/06/13 02:37:41;;;;;;;14.30;4.67;;;12.90;97.30;;;;;;4919751;29;20437;-89
2021/06/13 02:40:08;;;;;;;11.97;4.53;;;12.90;97.30;;;;;;4919744;29;20443;-89
2021/06/13 02:42:35;;;;;;;7.27;3.97;;;12.90;97.30;;;;;;4936716;29;20794;-89
2021/06/13 02:45:00;;;;;;;13.13;5.40;;;12.90;97.30;;;;;;4919593;29;20435;-89
2021/06/13 02:47:26;;;;;;;14.57;4.80;;;12.90;97.30;;;;;;4937154;29;20923;-89
2021/06/13 02:49:51;;;;;;;12.70;5.03;;;12.90;97.30;;;;;;4920927;29;20200;-89
2021/06/13 02:52:24;;;;;;;12.03;5.17;;;12.80;97.30;;;;;;4920670;29;20208;-89
2021/06/13 02:54:53;;;;;;;14.87;4.43;;;12.80;97.30;;;;;;4921092;29;20255;-89
2021/06/13 02:57:27;;;;;;;8.40;4.40;;;12.80;97.30;;;;;;4937813;29;20918;-89
2021/06/13 03:00:00;;;;;;;14.80;5.17;;;12.80;97.30;;;;;;4920531;29;20534;-89
2021/06/13 03:02:28;;;;;;;9.33;4.50;;;12.80;97.30;;;;;;4936901;29;20410;-90
2021/06/13 03:04:57;;;;;;;9.77;4.40;;;12.80;97.30;;;;;;4918506;29;20438;-89
2021/06/13 03:07:24;;;;;;;11.53;4.50;;;12.70;97.30;;;;;;4918765;29;20431;-89
2021/06/13 03:09:50;;;;;;;9.77;4.43;;;12.70;97.30;;;;;;4918600;29;20459;-90
2021/06/13 03:12:19;;;;;;;14.10;4.73;;;12.70;97.30;;;;;;4918493;29;20463;-89
2021/06/13 03:14:48;;;;;;;11.80;4.73;;;12.70;97.30;;;;;;4935742;29;20507;-89
2021/06/13 03:17:16;;;;;;;7.67;4.53;;;12.70;97.30;;;;;;4918974;29;20923;-89
2021/06/13 03:19:42;;;;;;;12.20;4.77;;;12.60;97.30;;;;;;4918731;29;20446;-89
2021/06/13 03:22:09;;;;;;;7.30;3.83;;;12.60;97.30;;;;;;4918728;29;20507;-89
2021/06/13 03:24:51;;;;;;;10.43;4.60;;;12.60;97.30;;;;;;4919334;29;20474;-89
2021/06/13 03:27:21;;;;;;;9.07;4.70;;;12.60;97.30;;;;;;4919630;29;20419;-89
2021/06/13 03:29:51;;;;;;;14.70;4.93;;;12.60;97.30;;;;;;4921055;29;20470;-90
2021/06/13 03:32:30;;;;;;;16.93;5.23;;;12.60;97.30;;;;;;4923338;29;20459;-88
2021/06/13 03:35:21;;;;;;;8.80;5.20;;;12.60;97.30;;;;;;4922461;29;20504;-88
2021/06/13 03:38:31;;;;;;;13.43;5.17;;;12.60;97.30;;;;;;4915087;29;20424;-89
2021/06/13 03:44:52;;;;;;;13.37;4.23;;;12.60;97.30;;;;;;4875994;29;20558;-88
2021/06/13 03:47:19;;;;;;;12.33;4.77;;;12.60;97.30;;;;;;4920817;29;20424;-89
2021/06/13 03:49:58;;;;;;;15.53;4.80;;;12.60;97.30;;;;;;4923307;29;20466;-89
2021/06/13 03:52:31;;;;;;;11.23;4.90;;;12.60;97.30;;;;;;4923408;29;20483;-89
2021/06/13 03:55:00;;;;;;;12.43;5.20;;;12.60;97.30;;;;;;4923577;29;20424;-90
2021/06/13 03:57:30;;;;;;;10.93;4.90;;;12.50;97.30;;;;;;4924106;29;20427;-89
2021/06/13 03:59:59;;;;;;;14.23;4.77;;;12.50;97.30;;;;;;4922948;29;20950;-88
2021/06/13 04:02:25;;;;;;;11.70;5.90;;;12.40;97.30;;;;;;4922213;29;20478;-89
2021/06/13 04:04:53;;;;;;;12.47;4.97;;;12.40;97.30;;;;;;4922171;29;20424;-89
2021/06/13 04:07:20;;;;;;;11.03;4.70;;;12.40;97.30;;;;;;4921770;29;20579;-89
2021/06/13 04:09:46;;;;;;;20.37;4.70;;;12.50;97.30;;;;;;4921118;29;21004;-89
2021/06/13 04:12:18;;;;;;;12.27;6.10;;;12.50;97.30;;;;;;4921270;29;20478;-89
2021/06/13 04:14:47;;;;;;;9.80;4.63;;;12.50;97.30;;;;;;4921155;29;20431;-89
2021/06/13 04:17:22;;;;;;;15.37;4.50;;;12.50;97.30;;;;;;4938142;29;20415;-89
2021/06/13 04:19:49;;;;;;;10.93;4.63;;;12.50;97.30;;;;;;4921417;29;20454;-89
2021/06/13 04:22:17;;;;;;;15.20;4.17;;;12.50;97.30;;;;;;4920861;29;20911;-89
2021/06/13 04:24:44;;;;;;;15.57;4.37;;;12.50;97.30;;;;;;4938715;29;20515;-88
2021/06/13 04:27:20;;;;;;;11.40;4.63;;;12.50;97.30;;;;;;4921558;29;20476;-89
2021/06/13 04:30:10;;;;;;;9.20;5.00;;;12.50;97.30;;;;;;4929764;23;20928;-88
2021/06/13 04:32:52;;;;;;;17.10;4.77;;;12.50;97.30;;;;;;4922002;29;20468;-89
2021/06/13 04:35:20;;;;;;;15.03;5.13;;;12.50;97.30;;;;;;4921888;29;20426;-88
2021/06/13 04:37:53;;;;;;;17.93;5.47;;;12.50;97.30;;;;;;4921481;29;20427;-88
2021/06/13 04:40:21;;;;;;;12.60;4.80;;;12.60;97.30;;;;;;4920304;29;20487;-89
2021/06/13 04:42:50;;;;;;;13.83;5.33;;;12.60;97.30;;;;;;4913255;29;20971;-89
2021/06/13 04:45:22;;;;;;;12.27;4.50;;;12.70;97.30;;;;;;4922274;29;20423;-89
2021/06/13 04:47:50;;;;;;;13.10;4.83;;;12.70;97.30;;;;;;4921717;29;20435;-89
2021/06/13 04:50:31;;;;;;;11.47;4.47;;;12.70;97.30;;;;;;4922177;29;20468;-89
2021/06/13 04:53:02;;;;;;;15.60;5.80;;;12.80;97.30;;;;;;4922498;29;20424;-88
2021/06/13 04:55:41;;;;;;;10.00;4.97;;;12.90;97.30;;;;;;4922175;29;20408;-89
2021/06/13 04:58:27;;;;;;;16.50;5.17;;;12.90;97.30;;;;;;4904677;29;20414;-89
2021/06/13 05:00:53;;;;;;;10.50;5.27;;;13.00;97.30;;;;;;4917322;29;20507;-89
2021/06/13 05:03:19;;;;;;;15.63;4.47;;;13.00;97.30;;;;;;4914864;29;21114;-88
2021/06/13 05:05:48;;;;;;;18.30;5.07;;;13.00;97.30;;;;;;4921275;29;20272;-89
2021/06/13 05:08:16;;;;;;;17.00;5.00;;;13.00;97.30;;;;;;4915773;29;20985;-89
2021/06/13 05:10:42;;;;;;;18.23;5.00;;;13.10;97.30;;;;;;4926925;29;20495;-89
2021/06/13 05:13:40;;;;;;;;;;;;;;;;;;;;;
2021/06/13 05:16:11;;;;;;;14.83;4.90;;;13.10;97.30;;;;;;4936944;29;20258;-89
2021/06/13 05:18:39;;;;;;;15.40;5.20;;;13.00;97.30;;;;;;4928608;29;20471;-89
2021/06/13 05:21:08;;;;;;;14.77;5.70;;;13.00;97.30;;;;;;4923131;23;20571;-78
2021/06/13 05:23:43;;;;;;;13.23;6.07;;;13.00;97.30;;;;;;4917189;29;20852;-78
2021/06/13 05:26:10;;;;;;;12.30;4.50;;;13.00;97.30;;;;;;4907312;29;20439;-76
2021/06/13 05:28:36;;;;;;;12.70;4.70;;;13.10;97.30;;;;;;4919706;29;20788;-76
2021/06/13 05:31:01;;;;;;;16.37;5.20;;;13.10;97.30;;;;;;4917563;29;20578;-76
2021/06/13 05:33:28;;;;;;;14.23;5.50;;;13.10;97.30;;;;;;4921603;29;20484;-79
2021/06/13 05:35:54;;;;;;;20.43;5.40;;;13.20;97.30;;;;;;4904388;29;20287;-75
2021/06/13 05:38:21;;;;;;;10.33;4.90;;;13.20;97.30;;;;;;4917088;29;20975;-76
2021/06/13 05:40:49;;;;;;;16.80;5.10;;;13.20;97.30;;;;;;4913652;29;20510;-76
2021/06/13 05:43:14;;;;;;;15.33;6.37;;;13.30;97.30;;;;;;4917514;29;20482;-76
2021/06/13 05:45:41;;;;;;;14.80;4.80;;;13.30;97.30;;;;;;4915030;29;20440;-75
2021/06/13 05:48:08;;;;;;;11.00;5.10;;;13.30;97.30;;;;;;4910295;29;20211;-75
2021/06/13 05:50:35;;;;;;;15.40;5.37;;;13.40;97.30;;;;;;4934713;29;20455;-75
2021/06/13 05:53:02;;;;;;;13.60;4.67;;;13.40;97.30;;;;;;4920660;29;20786;-76
2021/06/13 05:55:28;;;;;;;14.47;4.90;;;13.40;97.30;;;;;;4900051;29;20421;-76
2021/06/13 05:57:55;;;;;;;11.97;4.87;;;13.40;97.30;;;;;;4908030;29;20478;-75
2021/06/13 06:00:23;;;;;;;13.57;4.40;;;13.30;97.30;;;;;;4915591;29;20420;-75
2021/06/13 06:02:50;;;;;;;20.83;5.33;;;13.30;97.30;;;;;;4901940;29;20435;-76
2021/06/13 06:05:17;;;;;;;14.60;5.37;;;13.30;97.30;;;;;;4910484;29;20467;-78
2021/06/13 06:07:44;;;;;;;15.80;6.00;;;13.40;97.30;;;;;;4916993;29;20428;-75
2021/06/13 06:10:11;;;;;;;16.17;5.40;;;13.40;97.30;;;;;;4917147;29;20427;-76
2021/06/13 06:12:38;;;;;;;10.17;5.30;;;13.50;97.30;;;;;;4915341;29;20525;-76
2021/06/13 06:15:07;;;;;;;12.73;5.50;;;13.50;97.30;;;;;;4910117;29;20429;-76
2021/06/13 06:17:33;;;;;;;13.00;4.90;;;13.40;97.30;;;;;;4914177;29;20416;-77
2021/06/13 06:19:58;;;;;;;11.17;4.90;;;13.40;97.30;;;;;;4921157;29;20470;-77
2021/06/13 06:22:24;;;;;;;14.93;4.83;;;13.50;97.30;;;;;;4921577;29;20459;-75
2021/06/13 06:24:52;;;;;;;13.57;5.30;;;13.50;97.30;;;;;;4921591;29;20211;-75
2021/06/13 06:27:18;;;;;;;12.23;4.60;;;13.50;97.30;;;;;;4921390;29;20184;-76
2021/06/13 06:29:44;;;;;;;13.13;4.80;;;13.50;97.30;;;;;;4920579;29;20490;-75
2021/06/13 06:32:10;;;;;;;13.00;5.00;;;13.50;97.30;;;;;;4930017;23;20582;-78
2021/06/13 06:34:36;;;;;;;18.63;5.70;;;13.60;97.30;;;;;;4916149;29;20265;-75
2021/06/13 06:37:02;;;;;;;14.50;4.60;;;13.60;97.30;;;;;;4919802;29;20168;-77
2021/06/13 06:39:28;;;;;;;13.80;5.37;;;13.70;97.30;;;;;;4917866;29;20418;-77
2021/06/13 06:41:57;;;;;;;23.90;5.70;;;13.70;97.30;;;;;;4916588;29;20539;-77
2021/06/13 06:44:24;;;;;;;13.17;4.60;;;13.70;97.30;;;;;;4915726;29;20247;-78
2021/06/13 06:46:51;;;;;;;20.03;5.20;;;13.80;97.30;;;;;;4917570;29;20436;-76
2021/06/13 06:49:17;;;;;;;12.10;4.70;;;13.90;97.30;;;;;;4913670;29;20467;-76
2021/06/13 06:51:42;;;;;;;19.03;5.37;;;13.90;97.30;;;;;;4909442;29;20464;-77
2021/06/13 06:54:08;;;;;;;16.83;4.83;;;13.90;97.30;;;;;;4904271;29;20195;-75
2021/06/13 06:56:34;;;;;;;14.53;4.80;;;14.00;97.30;;;;;;4928595;29;20556;-77
2021/06/13 06:59:00;;;;;;;18.83;5.40;;;14.10;97.30;;;;;;4912126;29;20201;-75
2021/06/13 07:01:26;;;;;;;11.20;4.53;;;14.10;97.30;;;;;;4918448;29;20205;-77
2021/06/13 07:03:52;;;;;;;10.53;5.00;;;14.00;97.30;;;;;;4916824;29;20432;-76
2021/06/13 07:06:18;;;;;;;15.60;6.83;;;14.00;97.30;;;;;;4913666;29;20428;-76
2021/06/13 07:08:43;;;;;;;15.43;4.67;;;14.00;97.30;;;;;;4924572;29;20188;-75
2021/06/13 07:11:09;;;;;;;15.00;5.27;;;13.90;97.30;;;;;;4902401;29;20212;-77
2021/06/13 07:13:35;;;;;;;12.70;5.67;;;14.00;97.30;;;;;;4913886;29;20180;-76
2021/06/13 07:16:12;;;;;;;10.77;5.03;;;14.00;97.30;;;;;;4919774;29;20560;-76
2021/06/13 07:18:38;;;;;;;9.50;4.97;;;14.00;97.30;;;;;;4931180;29;20421;-80
2021/06/13 07:21:05;;;;;;;20.50;6.63;;;14.00;97.30;;;;;;4905416;29;20455;-76
2021/06/13 07:23:30;;;;;;;15.90;5.30;;;14.00;97.30;;;;;;4907450;29;20555;-77
2021/06/13 07:25:56;;;;;;;15.90;5.10;;;14.10;97.30;;;;;;4901258;29;20511;-76
2021/06/13 07:28:22;;;;;;;19.13;6.03;;;14.10;97.30;;;;;;4902903;29;20184;-77
2021/06/13 07:30:48;;;;;;;15.30;5.57;;;14.10;97.30;;;;;;4911803;29;20200;-75
2021/06/13 07:33:13;;;;;;;23.43;6.50;;;14.20;97.30;;;;;;4922466;29;20180;-75
2021/06/13 07:35:39;;;;;;;15.93;4.80;;;14.30;97.30;;;;;;4921599;29;20608;-75
2021/06/13 07:38:06;;;;;;;17.63;5.13;;;14.40;97.30;;;;;;4921372;29;20195;-77
2021/06/13 07:40:38;;;;;;;13.03;5.00;;;14.40;97.30;;;;;;4921971;29;20431;-76
2021/06/13 07:43:04;;;;;;;15.90;4.53;;;14.40;97.30;;;;;;4921036;29;20438;-75
2021/06/13 07:45:29;;;;;;;14.47;4.77;;;14.50;97.30;;;;;;4915639;29;20415;-76
2021/06/13 07:47:55;;;;;;;14.20;4.33;;;14.50;97.30;;;;;;4919095;29;20191;-76
2021/06/13 07:50:21;;;;;;;15.40;4.70;;;14.60;97.30;;;;;;4917213;29;20235;-77
2021/06/13 07:52:48;;;;;;;11.10;4.10;;;14.60;97.30;;;;;;4918250;29;20207;-76
2021/06/13 07:55:15;;;;;;;13.70;5.07;;;14.60;97.20;;;;;;4912694;29;20867;-76
2021/06/13 07:57:42;;;;;;;18.30;4.80;;;14.70;97.30;;;;;;4901828;29;20436;-77
2021/06/13 08:00:11;;;;;;;14.83;4.43;;;14.70;96.20;;;;;;4913395;29;20432;-79
2021/06/13 08:02:37;;;;;;;14.33;3.90;;;14.80;96.70;;;;;;4904074;29;20516;-77
2021/06/13 08:05:10;;;;;;;17.30;4.60;;;14.80;97.00;;;;;;4903379;29;20590;-77
2021/06/13 08:07:37;;;;;;;8.20;3.90;;;14.90;97.00;;;;;;4910507;29;20853;-76
2021/06/13 08:10:05;;;;;;;7.20;3.90;;;14.90;97.30;;;;;;4917588;29;21015;-77
2021/06/13 08:12:31;;;;;;;8.90;4.07;;;15.00;96.10;;;;;;4917825;29;20494;-77
2021/06/13 08:14:57;;;;;;;10.03;4.57;;;15.10;96.50;;;;;;4917373;29;20439;-77
2021/06/13 08:17:23;;;;;;;11.40;4.53;;;15.10;96.90;;;;;;4904273;29;20951;-77
2021/06/13 08:19:48;;;;;;;11.67;3.97;;;15.20;95.40;;;;;;4899340;29;20184;-76
2021/06/13 08:22:14;;;;;;;14.30;4.80;;;15.10;95.70;;;;;;4916439;29;20208;-76
2021/06/13 08:24:40;;;;;;;13.10;4.50;;;15.10;96.40;;;;;;4899644;29;20203;-76
2021/06/13 08:27:06;;;;;;;12.73;4.40;;;15.10;95.70;;;;;;4912270;29;20219;-79
2021/06/13 08:29:32;;;;;;;9.83;3.53;;;15.00;94.40;;;;;;4930737;29;20217;-76
2021/06/13 08:31:57;;;;;;;10.93;4.13;;;14.90;95.50;;;;;;4909588;29;20500;-76
2021/06/13 08:34:23;;;;;;;9.73;3.90;;;14.90;95.40;;;;;;4899356;29;20556;-77
2021/06/13 08:36:49;;;;;;;5.97;3.63;;;14.80;95.20;;;;;;4912070;29;20189;-76
2021/06/13 08:39:15;;;;;;;14.63;3.80;;;14.80;95.90;;;;;;4907724;29;20218;-75
2021/06/13 08:41:41;;;;;;;10.60;4.40;;;14.80;95.70;;;;;;4917624;29;20231;-76
2021/06/13 08:44:07;;;;;;;11.17;4.10;;;14.70;95.50;;;;;;4920252;29;20727;-76
2021/06/13 08:46:36;;;;;;;13.07;4.90;;;14.70;96.10;;;;;;4903732;29;20196;-77
2021/06/13 08:49:02;;;;;;;12.13;4.80;;;14.80;96.30;;;;;;4902300;29;20424;-77
2021/06/13 08:51:27;;;;;;;20.90;4.60;;;14.80;95.50;;;;;;4917566;29;20471;-76
2021/06/13 08:53:53;;;;;;;12.73;4.00;;;14.90;96.10;;;;;;4911725;29;20176;-77
2021/06/13 08:56:21;;;;;;;9.37;4.10;;;15.00;95.90;;;;;;4906567;29;20184;-76
2021/06/13 08:58:48;;;;;;;7.90;4.37;;;15.10;95.70;;;;;;4907354;29;20177;-76
2021/06/13 09:01:15;;;;;;;16.07;4.20;;;15.20;95.40;;;;;;4905790;29;21057;-76
2021/06/13 09:03:41;;;;;;;17.50;4.07;;;15.20;95.90;;;;;;4911290;29;20419;-76
2021/06/13 09:06:07;;;;;;;9.00;4.00;;;15.40;96.80;;;;;;4910738;29;21100;-77
2021/06/13 09:08:34;;;;;;;10.30;3.73;;;15.50;95.80;;;;;;4916902;29;20491;-77
2021/06/13 09:11:01;;;;;;;10.37;3.30;;;15.60;93.90;;;;;;4916759;29;20199;-77
2021/06/13 09:13:29;;;;;;;10.30;3.60;;;15.70;91.60;;;;;;4920635;29;20464;-78
2021/06/13 09:15:58;;;;;;;10.00;3.50;;;15.70;90.60;;;;;;4916753;29;20979;-78
2021/06/13 09:18:35;;;;;;;12.17;3.33;;;15.70;90.50;;;;;;4917197;29;20430;-77
2021/06/13 09:21:02;;;;;;;11.83;3.70;;;15.70;91.10;;;;;;4918490;29;20491;-80
2021/06/13 09:23:29;;;;;;;11.30;3.83;;;15.70;89.60;;;;;;4911402;29;20425;-77
2021/06/13 09:26:01;;;;;;;9.33;3.40;;;15.70;89.90;;;;;;4899232;29;20484;-81
2021/06/13 09:28:28;;;;;;;8.97;3.60;;;15.70;90.60;;;;;;4912143;29;20431;-78
2021/06/13 09:30:54;;;;;;;5.43;3.13;;;15.80;90.60;;;;;;4912695;29;20854;-79
2021/06/13 09:33:30;;;;;;;13.07;3.47;;;15.80;90.20;;;;;;4901922;29;20453;-77
2021/06/13 09:35:58;;;;;;;10.60;3.70;;;15.90;89.10;;;;;;4912660;29;20514;-79
2021/06/13 09:38:51;;;;;;;12.40;3.97;;;15.90;89.50;;;;;;4916391;29;20424;-78
2021/06/13 09:41:21;;;;;;;9.53;3.63;;;16.00;90.30;;;;;;4909034;29;20464;-78
2021/06/13 09:43:48;;;;;;;10.53;4.00;;;16.10;89.80;;;;;;4905556;29;20496;-79
2021/06/13 09:46:20;;;;;;;10.77;3.90;;;16.20;88.90;;;;;;4914795;29;20433;-79
2021/06/13 09:48:49;;;;;;;16.30;3.90;;;16.20;89.60;;;;;;4902996;29;20420;-80
2021/06/13 09:51:20;;;;;;;11.57;3.63;;;16.30;89.50;;;;;;4907380;29;20472;-78
2021/06/13 09:53:59;;;;;;;13.27;3.53;;;16.30;89.20;;;;;;4916338;29;20432;-78
2021/06/13 09:56:27;;;;;;;18.63;4.13;;;16.30;88.90;;;;;;4917125;29;20435;-78
2021/06/13 09:59:05;;;;;;;7.70;3.50;;;16.30;89.90;;;;;;4905393;29;20463;-77
2021/06/13 10:01:38;;;;;;;9.33;3.60;;;16.30;89.30;;;;;;4901701;29;20507;-77
2021/06/13 10:04:06;;;;;;;6.90;3.23;;;16.40;88.00;;;;;;4901828;29;20491;-78
2021/06/13 10:06:35;;;;;;;11.70;3.40;;;16.40;87.80;;;;;;4917904;29;20581;-78
2021/06/13 10:09:02;;;;;;;12.73;3.30;;;16.40;87.60;;;;;;4918031;29;20450;-79
2021/06/13 10:11:29;;;;;;;13.40;3.40;;;16.30;88.20;;;;;;4915849;29;20629;-77
2021/06/13 10:14:00;;;;;;;7.73;3.20;;;16.30;89.20;;;;;;4915372;29;20432;-78
2021/06/13 10:16:30;;;;;;;10.13;3.43;;;16.30;89.80;;;;;;4905706;29;20977;-76
2021/06/13 10:18:59;;;;;;;7.97;2.90;;;16.30;90.20;;;;;;4916371;29;20536;-77
2021/06/13 10:21:27;;;;;;;7.00;2.80;;;16.20;88.20;;;;;;4919400;29;20519;-77
2021/06/13 10:23:54;;;;;;;8.83;3.50;;;16.20;86.90;;;;;;4905009;29;20428;-80
2021/06/13 10:26:20;;;;;;;10.40;3.03;;;16.20;86.70;;;;;;4902789;29;20432;-78
2021/06/13 10:28:45;;;;;;;8.63;3.13;;;16.20;87.20;;;;;;4902856;29;20424;-78
2021/06/13 10:31:11;;;;;;;7.93;3.43;;;16.20;87.30;;;;;;4909741;29;20850;-77
2021/06/13 10:33:39;;;;;;;7.87;3.40;;;16.20;88.10;;;;;;4916793;29;20200;-77
2021/06/13 10:36:05;;;;;;;6.17;2.80;;;16.20;87.70;;;;;;4897259;29;20296;-77
2021/06/13 10:38:31;;;;;;;6.83;2.97;;;16.30;87.90;;;;;;4897516;29;21073;-78
2021/06/13 10:40:58;;;;;;;7.50;3.20;;;16.20;87.10;;;;;;4914696;29;20291;-78
2021/06/13 10:43:27;;;;;;;6.50;3.30;;;16.30;87.70;;;;;;4920555;29;20419;-78
2021/06/13 10:46:02;;;;;;;6.10;3.07;;;16.30;87.40;;;;;;4910001;29;20439;-77
2021/06/13 10:48:43;;;;;;;8.30;3.97;;;16.40;87.90;;;;;;4903555;29;20427;-78
2021/06/13 10:51:31;;;;;;;11.37;3.60;;;16.40;87.50;;;;;;4906386;29;20499;-77
2021/06/13 10:54:25;;;;;;;11.80;3.83;;;16.50;87.50;;;;;;4921699;29;20921;-77
2021/06/13 10:56:56;;;;;;;8.53;3.53;;;16.50;87.10;;;;;;4919389;29;20427;-77
2021/06/13 10:59:22;;;;;;;9.80;3.20;;;16.40;87.30;;;;;;4901064;29;20420;-77
2021/06/13 11:02:13;;;;;;;9.77;4.00;;;16.40;87.80;;;;;;4910891;29;20601;-77
2021/06/13 11:04:50;;;;;;;8.03;3.50;;;16.40;88.20;;;;;;4913890;29;20603;-75
2021/06/13 11:07:29;;;;;;;11.97;3.90;;;16.40;87.80;;;;;;4916458;29;20452;-77
2021/06/13 11:10:16;;;;;;;9.47;3.47;;;16.50;88.50;;;;;;4902032;29;20412;-78
2021/06/13 11:12:52;;;;;;;9.10;3.67;;;16.60;88.30;;;;;;4916767;29;20878;-77
2021/06/13 11:15:36;;;;;;;9.97;3.43;;;16.70;88.50;;;;;;4902483;29;21016;-78
2021/06/13 11:18:03;;;;;;;15.53;4.60;;;16.70;86.60;;;;;;4911778;29;20432;-77
2021/06/13 11:21:28;;;;;;;10.67;4.40;;;16.80;87.20;;;;;;4918844;29;20463;-80
2021/06/13 11:23:26;;;;;;;8.03;4.50;;;17.00;87.30;;;;;;4924387;29;20555;-77
2021/06/13 11:25:54;;;;;;;9.10;4.20;;;17.20;86.10;;;;;;4917764;29;20765;-79
2021/06/13 11:28:19;;;;;;;7.83;3.80;;;17.30;86.20;;;;;;4908788;29;20480;-77
2021/06/13 11:30:46;;;;;;;6.83;3.70;;;17.20;86.30;;;;;;4917534;29;20452;-82
2021/06/13 11:33:32;;;;;;;12.10;4.37;;;17.10;86.60;;;;;;4903206;29;20232;-78
2021/06/13 11:35:58;;;;;;;8.17;3.90;;;16.90;86.40;;;;;;4903757;29;20472;-79
2021/06/13 11:38:25;;;;;;;16.13;4.53;;;16.80;86.70;;;;;;4902982;29;20800;-82
2021/06/13 11:41:03;;;;;;;9.77;4.03;;;16.60;87.10;;;;;;4911232;29;20994;-79
2021/06/13 11:43:42;;;;;;;14.17;4.30;;;16.60;87.70;;;;;;4920730;29;20419;-78
2021/06/13 11:46:10;;;;;;;11.30;4.80;;;16.60;88.70;;;;;;4916535;29;20416;-78
2021/06/13 11:48:38;;;;;;;8.07;3.60;;;16.70;88.50;;;;;;4906329;29;20435;-79
2021/06/13 11:51:16;;;;;;;10.27;3.63;;;16.80;89.20;;;;;;4920936;29;20542;-77
2021/06/13 11:54:03;;;;;;;7.50;4.00;;;16.90;88.60;;;;;;4922664;29;20419;-78
2021/06/13 11:57:22;;;;;;;11.20;4.33;;;17.00;86.50;;;;;;4921260;29;20447;-79
2021/06/13 11:59:48;;;;;;;8.80;4.80;;;17.10;87.60;;;;;;4920851;29;20430;-78
2021/06/13 12:02:22;;;;;;;9.43;4.30;;;17.20;87.70;;;;;;4913041;29;20483;-76
2021/06/13 12:04:49;;;;;;;10.37;4.20;;;17.20;87.10;;;;;;4917911;29;20428;-81
2021/06/13 12:07:16;;;;;;;11.10;5.20;;;17.30;87.30;;;;;;4901543;29;20424;-77
2021/06/13 12:09:43;;;;;;;13.53;4.10;;;17.40;88.00;;;;;;4919938;29;20523;-78
2021/06/13 12:12:10;;;;;;;11.27;4.50;;;17.40;86.00;;;;;;4918157;29;20905;-78
2021/06/13 12:14:37;;;;;;;8.60;3.60;;;17.40;87.50;;;;;;4915863;29;20442;-77
2021/06/13 12:17:12;;;;;;;11.63;3.90;;;17.50;88.00;;;;;;4919495;29;20925;-77
2021/06/13 12:19:40;;;;;;;10.57;4.33;;;17.40;85.90;;;;;;4917510;29;20466;-80
2021/06/13 12:27:30;;;;;;;12.13;4.20;;;17.30;88.30;;;;;;4932686;29;20468;-78
2021/06/13 12:30:02;;;;;;;10.73;4.40;;;17.30;87.90;;;;;;4919836;29;20936;-77
2021/06/13 12:32:30;;;;;;;6.93;4.10;;;17.40;88.20;;;;;;4920027;29;21015;-76
2021/06/13 12:35:16;;;;;;;10.73;3.30;;;17.60;89.20;;;;;;4907753;29;20424;-76
2021/06/13 12:38:00;;;;;;;9.97;3.60;;;18.00;86.70;;;;;;4918525;29;20900;-79
2021/06/13 12:40:26;;;;;;;6.83;3.70;;;18.20;86.10;;;;;;4918775;29;20467;-77
2021/06/13 12:42:52;;;;;;;11.20;4.50;;;18.20;85.80;;;;;;4918836;29;20425;-76
2021/06/13 12:45:20;;;;;;;8.00;4.00;;;18.20;86.70;;;;;;4916114;29;20510;-78
2021/06/13 12:47:53;;;;;;;9.23;4.23;;;18.20;85.30;;;;;;4927145;29;20451;-77
2021/06/13 12:50:23;;;;;;;10.57;4.10;;;18.20;85.60;;;;;;4910658;29;20432;-77
2021/06/13 12:52:52;;;;;;;11.00;4.70;;;18.20;85.70;;;;;;4901059;29;20465;-75
2021/06/13 12:55:18;;;;;;;7.30;3.60;;;18.10;85.30;;;;;;4912165;29;20451;-79
2021/06/13 12:57:49;;;;;;;9.80;4.37;;;18.10;84.70;;;;;;4919860;29;20467;-78
2021/06/13 13:00:16;;;;;;;13.30;4.50;;;18.00;85.00;;;;;;4919951;29;20423;-78
2021/06/13 13:02:44;;;;;;;11.80;4.53;;;17.90;85.90;;;;;;4917022;29;20486;-78
2021/06/13 13:05:17;;;;;;;12.13;4.87;;;17.80;86.40;;;;;;4919729;29;20464;-79
2021/06/13 13:07:44;;;;;;;9.70;4.33;;;17.80;86.20;;;;;;4920692;29;20431;-79
2021/06/13 13:10:24;;;;;;;10.63;4.30;;;18.00;86.20;;;;;;4920829;29;20431;-78
2021/06/13 13:12:55;;;;;;;7.87;3.90;;;18.20;85.10;;;;;;4919575;29;20462;-78
2021/06/13 13:15:28;;;;;;;10.63;4.97;;;18.30;85.70;;;;;;4909047;29;20428;-81
2021/06/13 13:17:57;;;;;;;7.90;4.27;;;18.40;85.70;;;;;;4918909;29;20427;-78
2021/06/13 13:20:32;;;;;;;11.17;4.50;;;18.40;85.40;;;;;;4919848;29;20416;-79
2021/06/13 13:23:08;;;;;;;10.00;3.77;;;18.60;85.30;;;;;;4919332;29;20419;-79
2021/06/13 13:25:37;;;;;;;9.17;4.27;;;18.60;84.50;;;;;;4920451;29;20454;-77
2021/06/13 13:28:19;;;;;;;9.60;4.70;;;18.60;84.70;;;;;;4938225;29;20474;-81
2021/06/13 13:30:45;;;;;;;9.00;4.30;;;18.60;83.60;;;;;;4920347;29;20450;-80
2021/06/13 13:33:11;;;;;;;9.40;4.40;;;18.50;84.30;;;;;;4916616;29;20475;-78